createdAt,value
2018-12-26T00:01:54.726Z,2.73
2018-12-26T00:04:35.694Z,3.03
2018-12-26T00:07:16.446Z,2.73
2018-12-26T00:09:57.330Z,3.23
2018-12-26T00:12:38.682Z,3.40
2018-12-26T00:15:19.622Z,3.47
2018-12-26T00:18:00.815Z,3.50
2018-12-26T00:20:41.340Z,3.13
2018-12-26T00:23:21.819Z,3.03
2018-12-26T00:26:03.100Z,3.50
2018-12-26T00:28:44.393Z,3.20
2018-12-26T00:31:25.080Z,3.10
2018-12-26T00:34:05.692Z,3.33
2018-12-26T00:36:47.066Z,3.03
2018-12-26T00:39:28.251Z,3.23
2018-12-26T00:42:09.199Z,3.40
2018-12-26T00:44:49.991Z,3.43
2018-12-26T00:47:30.903Z,3.40
2018-12-26T00:50:11.679Z,3.27
2018-12-26T00:52:52.414Z,3.30
2018-12-26T00:55:33.162Z,3.87
2018-12-26T00:58:14.373Z,3.60
2018-12-26T01:00:55.233Z,3.57
2018-12-26T01:03:35.976Z,3.80
2018-12-26T01:06:16.951Z,4.40
2018-12-26T01:08:57.885Z,3.67
2018-12-26T01:11:38.384Z,4.40
2018-12-26T01:14:19.119Z,3.83
2018-12-26T01:17:00.219Z,3.60
2018-12-26T01:19:40.773Z,4.10
2018-12-26T01:22:21.461Z,3.33
2018-12-26T01:25:02.145Z,3.60
2018-12-26T01:27:42.631Z,3.67
2018-12-26T01:30:23.904Z,3.70
2018-12-26T01:33:04.821Z,3.20
2018-12-26T01:35:45.581Z,4.03
2018-12-26T01:38:26.499Z,3.10
2018-12-26T01:41:07.365Z,3.40
2018-12-26T01:43:48.861Z,3.30
2018-12-26T01:46:29.891Z,3.33
2018-12-26T01:49:11.119Z,3.03
2018-12-26T01:51:40.179Z,3.30
2018-12-26T01:54:28.395Z,3.97
2018-12-26T01:57:16.589Z,2.90
2018-12-26T02:00:05.090Z,3.60
2018-12-26T02:02:53.319Z,3.40
2018-12-26T02:05:41.398Z,3.33
2018-12-26T02:08:29.573Z,3.10
2018-12-26T02:11:17.820Z,3.63
2018-12-26T02:14:06.120Z,3.30
2018-12-26T02:16:54.400Z,3.83
2018-12-26T02:19:42.546Z,3.73
2018-12-26T02:22:30.736Z,4.23
2018-12-26T02:25:12.049Z,4.00
2018-12-26T02:27:52.912Z,3.63
2018-12-26T02:33:16.799Z,4.60
2018-12-26T02:35:57.878Z,4.50
2018-12-26T02:38:38.637Z,5.00
2018-12-26T02:41:19.304Z,4.50
2018-12-26T02:44:00.236Z,5.00
2018-12-26T02:46:41.486Z,4.87
2018-12-26T02:49:22.186Z,4.97
2018-12-26T02:52:03.016Z,5.57
2018-12-26T02:54:44.004Z,6.00
2018-12-26T02:57:24.918Z,5.63
2018-12-26T03:00:05.836Z,5.73
2018-12-26T03:02:47.217Z,6.70
2018-12-26T03:05:27.880Z,6.83
2018-12-26T03:10:58.918Z,7.37
2018-12-26T03:13:27.994Z,8.33
2018-12-26T03:16:16.121Z,8.10
2018-12-26T03:19:04.237Z,8.70
2018-12-26T03:21:52.551Z,8.63
2018-12-26T03:24:33.273Z,8.70
2018-12-26T03:27:14.546Z,8.80
2018-12-26T03:29:55.223Z,10.17
2018-12-26T03:32:36.138Z,10.23
2018-12-26T03:35:05.568Z,10.53
2018-12-26T03:37:34.754Z,10.17
2018-12-26T03:40:23.052Z,9.97
2018-12-26T03:43:11.464Z,10.97
2018-12-26T03:45:59.894Z,10.10
2018-12-26T03:51:23.947Z,10.93
2018-12-26T03:53:53.492Z,11.70
2018-12-26T03:56:22.522Z,12.00
2018-12-26T03:59:10.670Z,11.43
2018-12-26T04:01:58.832Z,12.53
2018-12-26T04:04:47.097Z,12.10
2018-12-26T04:07:35.302Z,12.20
2018-12-26T04:10:23.699Z,11.40
2018-12-26T04:13:11.979Z,11.33
2018-12-26T04:15:40.821Z,12.30
2018-12-26T04:18:29.162Z,11.50
2018-12-26T04:21:17.495Z,12.20
2018-12-26T04:24:05.821Z,11.50
2018-12-26T04:26:46.966Z,12.90
2018-12-26T04:29:27.841Z,11.30
2018-12-26T04:32:08.882Z,12.13
2018-12-26T04:34:49.599Z,12.23
2018-12-26T04:40:12.237Z,11.13
2018-12-26T04:42:53.547Z,11.60
2018-12-26T04:45:34.933Z,12.27
2018-12-26T04:48:15.327Z,11.93
2018-12-26T04:50:56.209Z,12.60
2018-12-26T05:02:20.028Z,15.20
2018-12-26T05:05:00.681Z,14.27
2018-12-26T05:07:39.941Z,15.43
2018-12-26T05:10:28.233Z,15.97
2018-12-26T05:13:16.512Z,15.90
2018-12-26T05:16:04.766Z,15.10
2018-12-26T05:18:52.907Z,16.20
2018-12-26T05:21:41.003Z,15.53
2018-12-26T05:24:29.268Z,16.50
2018-12-26T05:27:17.506Z,16.23
2018-12-26T05:30:06.079Z,16.90
2018-12-26T05:32:54.281Z,16.93
2018-12-26T05:35:42.595Z,18.00
2018-12-26T05:38:30.753Z,16.37
2018-12-26T05:41:18.899Z,16.50
2018-12-26T05:44:07.051Z,17.73
2018-12-26T05:46:55.217Z,16.70
2018-12-26T05:49:43.325Z,16.70
2018-12-26T05:52:31.525Z,16.07
2018-12-26T05:55:00.461Z,16.67
2018-12-26T05:57:48.606Z,17.03
2018-12-26T06:00:36.939Z,17.13
2018-12-26T06:03:25.258Z,15.83
2018-12-26T06:06:13.548Z,17.00
2018-12-26T06:09:01.769Z,16.13
2018-12-26T06:11:49.919Z,16.47
2018-12-26T06:14:38.109Z,16.93
2018-12-26T06:17:26.257Z,17.40
2018-12-26T06:20:14.597Z,17.23
2018-12-26T06:23:02.847Z,18.57
2018-12-26T06:25:51.049Z,16.90
2018-12-26T06:28:20.094Z,18.27
2018-12-26T06:31:08.357Z,19.80
2018-12-26T06:33:56.525Z,20.00
2018-12-26T06:36:44.821Z,18.20
2018-12-26T06:39:32.983Z,18.43
2018-12-26T06:42:21.134Z,18.23
2018-12-26T06:45:09.379Z,18.37
2018-12-26T06:47:57.559Z,19.57
2018-12-26T06:50:38.431Z,19.37
2018-12-26T06:53:19.372Z,19.20
2018-12-26T06:56:00.799Z,21.67
2018-12-26T06:58:41.443Z,21.50
2018-12-26T07:01:22.261Z,21.30
2018-12-26T07:04:02.785Z,19.77
2018-12-26T07:06:43.994Z,19.93
2018-12-26T07:09:24.501Z,21.10
2018-12-26T07:12:05.620Z,21.13
2018-12-26T07:14:46.610Z,21.30
2018-12-26T07:17:27.630Z,19.30
2018-12-26T07:20:09.032Z,21.60
2018-12-26T07:22:50.287Z,20.33
2018-12-26T07:25:31.472Z,20.80
2018-12-26T07:28:12.505Z,19.50
2018-12-26T07:30:53.136Z,18.17
2018-12-26T07:33:34.029Z,20.73
2018-12-26T07:38:57.647Z,18.43
2018-12-26T07:41:38.279Z,20.13
2018-12-26T07:44:23.184Z,20.57
2018-12-26T07:47:04.556Z,19.30
2018-12-26T07:49:46.124Z,19.73
2018-12-26T07:52:27.394Z,18.40
2018-12-26T07:55:08.041Z,19.03
2018-12-26T07:57:49.414Z,18.50
2018-12-26T08:00:30.192Z,19.37
2018-12-26T08:03:10.697Z,18.27
2018-12-26T08:05:52.027Z,20.57
2018-12-26T08:08:33.017Z,19.23
2018-12-26T08:11:14.122Z,21.40
2018-12-26T08:13:43.252Z,19.53
2018-12-26T08:16:12.718Z,21.37
2018-12-26T08:21:51.643Z,22.87
2018-12-26T08:24:39.861Z,21.87
2018-12-26T08:27:28.002Z,22.03
2018-12-26T08:30:16.241Z,22.00
2018-12-26T08:33:04.311Z,21.20
2018-12-26T08:35:52.617Z,20.50
2018-12-26T08:38:40.773Z,21.43
2018-12-26T08:41:29.043Z,20.83
2018-12-26T08:44:17.527Z,20.47
2018-12-26T08:47:05.955Z,20.73
2018-12-26T08:49:47.388Z,22.93
2018-12-26T08:52:27.977Z,21.40
2018-12-26T08:55:08.476Z,18.63
2018-12-26T08:57:49.331Z,19.20
2018-12-26T09:00:30.921Z,19.57
2018-12-26T09:03:12.326Z,20.13
2018-12-26T09:05:53.111Z,18.70
2018-12-26T09:08:33.795Z,19.17
2018-12-26T09:11:14.611Z,19.60
2018-12-26T09:13:55.651Z,17.50
2018-12-26T09:16:36.808Z,18.13
2018-12-26T09:19:18.193Z,16.73
2018-12-26T09:21:59.363Z,18.17
2018-12-26T09:24:40.692Z,18.23
2018-12-26T09:27:21.636Z,17.03
2018-12-26T09:30:03.019Z,18.17
2018-12-26T09:32:43.881Z,14.40
2018-12-26T09:35:24.987Z,13.63
2018-12-26T09:38:05.991Z,14.97
2018-12-26T09:40:46.747Z,14.30
2018-12-26T09:43:28.152Z,14.87
2018-12-26T09:46:09.052Z,14.90
2018-12-26T09:48:41.326Z,14.63
2018-12-26T09:51:10.553Z,14.53
2018-12-26T09:53:58.692Z,15.53
2018-12-26T09:56:46.983Z,14.73
2018-12-26T09:59:16.164Z,13.80
2018-12-26T10:02:04.554Z,15.77
2018-12-26T10:04:52.896Z,14.00
2018-12-26T10:07:41.144Z,13.90
2018-12-26T10:10:29.386Z,14.10
2018-12-26T10:13:17.526Z,14.90
2018-12-26T10:16:05.755Z,14.60
2018-12-26T10:18:53.878Z,17.50
2018-12-26T10:21:42.076Z,17.40
2018-12-26T10:24:30.158Z,15.77
2018-12-26T10:27:18.478Z,18.87
2018-12-26T10:29:47.677Z,19.10
2018-12-26T10:32:35.745Z,18.70
2018-12-26T10:35:23.962Z,19.10
2018-12-26T10:38:11.982Z,18.17
2018-12-26T10:41:00.105Z,16.73
2018-12-26T10:43:48.219Z,19.50
2018-12-26T10:46:36.558Z,19.60
2018-12-26T10:49:24.651Z,18.80
2018-12-26T10:52:05.427Z,18.40
2018-12-26T10:54:46.528Z,19.43
2018-12-26T10:57:27.557Z,19.47
2018-12-26T11:00:08.493Z,20.30
2018-12-26T11:02:49.138Z,18.43
2018-12-26T11:05:29.961Z,20.27
2018-12-26T11:08:10.619Z,18.73
2018-12-26T11:10:51.755Z,19.37
2018-12-26T11:13:33.342Z,19.90
2018-12-26T11:16:14.644Z,18.10
2018-12-26T11:18:55.743Z,18.70
2018-12-26T11:21:37.087Z,18.50
2018-12-26T11:24:05.933Z,18.10
2018-12-26T11:26:54.057Z,16.40
2018-12-26T11:29:42.190Z,18.83
2018-12-26T11:32:30.275Z,17.47
2018-12-26T11:35:18.391Z,18.17
2018-12-26T11:38:06.566Z,16.40
2018-12-26T11:40:54.642Z,17.27
2018-12-26T11:43:42.778Z,16.40
2018-12-26T11:46:30.896Z,16.03
2018-12-26T11:49:18.961Z,16.93
2018-12-26T11:52:07.269Z,15.70
2018-12-26T11:54:56.774Z,16.97
2018-12-26T11:57:44.883Z,17.10
2018-12-26T12:00:32.912Z,16.50
2018-12-26T12:03:21.062Z,15.70
2018-12-26T12:06:09.152Z,16.53
2018-12-26T12:08:57.223Z,16.80
2018-12-26T12:11:45.358Z,17.10
2018-12-26T12:14:33.498Z,18.20
2018-12-26T12:17:21.614Z,18.00
2018-12-26T12:20:10.338Z,17.97
2018-12-26T12:22:58.512Z,19.20
2018-12-26T12:25:46.744Z,15.83
2018-12-26T12:28:34.834Z,18.90
2018-12-26T12:31:15.850Z,19.70
2018-12-26T12:33:56.277Z,18.53
2018-12-26T12:36:37.087Z,19.13
2018-12-26T12:39:17.852Z,19.30
2018-12-26T12:41:58.458Z,20.60
2018-12-26T12:44:39.172Z,21.07
2018-12-26T12:47:19.881Z,21.03
2018-12-26T12:50:00.883Z,19.83
2018-12-26T12:55:23.676Z,22.47
2018-12-26T12:58:02.959Z,21.67
2018-12-26T13:00:51.138Z,22.90
2018-12-26T13:03:46.574Z,24.87
2018-12-26T13:06:29.266Z,23.73
2018-12-26T13:08:58.182Z,24.33
2018-12-26T13:11:27.150Z,22.23
2018-12-26T13:14:15.189Z,24.40
2018-12-26T13:17:22.797Z,24.57
2018-12-26T13:20:10.878Z,25.20
2018-12-26T13:22:59.102Z,26.00
2018-12-26T13:25:47.187Z,23.67
2018-12-26T13:28:35.262Z,25.67
2018-12-26T13:31:23.338Z,25.10
2018-12-26T13:34:11.472Z,24.70
2018-12-26T13:36:59.540Z,26.27
2018-12-26T13:39:47.586Z,26.50
2018-12-26T13:42:35.688Z,24.33
2018-12-26T13:45:23.820Z,25.27
2018-12-26T13:48:12.054Z,26.47
2018-12-26T13:50:52.690Z,26.90
2018-12-26T13:53:33.347Z,25.57
2018-12-26T13:56:14.660Z,27.60
2018-12-26T13:58:55.522Z,27.33
2018-12-26T14:04:19.426Z,28.07
2018-12-26T14:07:00.340Z,27.40
2018-12-26T14:09:41.198Z,27.27
2018-12-26T14:12:22.564Z,25.73
2018-12-26T14:15:03.939Z,24.30
2018-12-26T14:17:44.299Z,25.63
2018-12-26T14:20:24.798Z,24.20
2018-12-26T14:25:47.684Z,24.67
2018-12-26T14:28:28.435Z,24.07
2018-12-26T14:31:08.957Z,23.00
2018-12-26T14:36:31.667Z,22.87
2018-12-26T14:39:12.800Z,22.93
2018-12-26T14:41:53.259Z,22.70
2018-12-26T14:44:34.482Z,21.20
2018-12-26T14:47:15.631Z,22.63
2018-12-26T14:49:56.239Z,26.33
2018-12-26T14:52:37.525Z,20.60
2018-12-26T14:55:18.335Z,29.60
2018-12-26T14:57:58.891Z,20.50
2018-12-26T15:00:39.745Z,21.90
2018-12-26T15:03:20.211Z,20.10
2018-12-26T15:06:01.133Z,19.80
2018-12-26T15:08:42.407Z,20.53
2018-12-26T15:11:24.043Z,19.03
2018-12-26T15:14:05.176Z,22.63
2018-12-26T15:16:45.663Z,18.40
2018-12-26T15:19:26.517Z,19.53
2018-12-26T15:22:07.921Z,17.57
2018-12-26T15:24:48.552Z,18.00
2018-12-26T15:27:29.073Z,18.20
2018-12-26T15:30:10.223Z,18.00
2018-12-26T15:32:51.159Z,18.77
2018-12-26T15:35:32.514Z,18.27
2018-12-26T15:38:01.391Z,17.40
2018-12-26T15:40:30.363Z,18.23
2018-12-26T15:43:00.327Z,17.47
2018-12-26T15:45:48.440Z,17.93
2018-12-26T15:48:36.536Z,18.37
2018-12-26T15:51:24.723Z,19.60
2018-12-26T15:54:12.793Z,18.70
2018-12-26T15:57:00.974Z,18.80
2018-12-26T15:59:49.115Z,20.20
2018-12-26T16:02:37.287Z,20.50
2018-12-26T16:05:25.355Z,21.13
2018-12-26T16:08:13.569Z,19.80
2018-12-26T16:11:01.669Z,20.40
2018-12-26T16:13:49.959Z,20.07
2018-12-26T16:16:38.031Z,20.80
2018-12-26T16:19:26.193Z,20.77
2018-12-26T16:22:14.255Z,20.60
2018-12-26T16:25:03.244Z,22.10
2018-12-26T16:27:51.346Z,24.27
2018-12-26T16:30:20.421Z,21.40
2018-12-26T16:33:08.514Z,23.37
2018-12-26T16:38:50.485Z,22.10
2018-12-26T16:41:38.568Z,23.37
2018-12-26T16:44:26.602Z,21.20
2018-12-26T16:47:14.673Z,23.23
2018-12-26T16:50:02.830Z,22.50
2018-12-26T16:52:43.753Z,23.20
2018-12-26T16:55:25.152Z,22.90
2018-12-26T16:58:06.027Z,22.33
2018-12-26T17:00:54.848Z,24.07
2018-12-26T17:03:28.832Z,22.10
2018-12-26T17:06:09.370Z,21.47
2018-12-26T17:08:49.966Z,23.67
2018-12-26T17:11:30.992Z,23.03
2018-12-26T17:14:11.579Z,24.73
2018-12-26T17:16:52.148Z,25.27
2018-12-26T17:19:33.472Z,24.17
2018-12-26T17:22:14.126Z,26.07
2018-12-26T17:24:54.557Z,25.63
2018-12-26T17:27:35.724Z,26.17
2018-12-26T17:30:16.506Z,23.90
2018-12-26T17:33:00.766Z,23.87
2018-12-26T17:35:40.161Z,22.77
2018-12-26T17:38:21.403Z,23.57
2018-12-26T17:41:02.395Z,23.07
2018-12-26T17:43:43.159Z,24.40
2018-12-26T17:46:23.670Z,24.27
2018-12-26T17:49:04.387Z,23.17
2018-12-26T17:51:44.830Z,22.37
2018-12-26T17:54:25.586Z,23.57
2018-12-26T17:57:06.300Z,23.20
2018-12-26T17:59:47.488Z,23.30
2018-12-26T18:02:28.265Z,24.50
2018-12-26T18:05:08.770Z,24.20
2018-12-26T18:07:49.532Z,24.90
2018-12-26T18:10:30.274Z,25.07
2018-12-26T18:13:10.844Z,27.10
2018-12-26T18:15:51.772Z,27.50
2018-12-26T18:18:32.558Z,28.00
2018-12-26T18:21:13.236Z,29.23
2018-12-26T18:23:54.080Z,29.03
2018-12-26T18:26:34.485Z,31.93
2018-12-26T18:29:15.504Z,29.10
2018-12-26T18:31:56.136Z,31.70
2018-12-26T18:34:37.134Z,31.53
2018-12-26T18:37:17.752Z,31.47
2018-12-26T18:39:58.393Z,31.83
2018-12-26T18:42:39.644Z,34.37
2018-12-26T18:45:20.657Z,36.10
2018-12-26T18:48:01.184Z,39.43
2018-12-26T18:50:41.692Z,36.27
2018-12-26T18:53:22.529Z,39.03
2018-12-26T18:56:02.998Z,39.17
2018-12-26T18:58:43.782Z,42.50
2018-12-26T19:01:30.582Z,44.33
2018-12-26T19:04:07.286Z,43.50
2018-12-26T19:06:48.139Z,48.50
2018-12-26T19:09:29.388Z,49.93
2018-12-26T19:12:10.055Z,45.60
2018-12-26T19:14:50.678Z,54.40
2018-12-26T19:17:31.701Z,47.53
2018-12-26T19:20:13.013Z,52.50
2018-12-26T19:22:53.919Z,52.40
2018-12-26T19:25:34.497Z,47.90
2018-12-26T19:28:15.247Z,56.17
2018-12-26T19:30:55.543Z,54.60
2018-12-26T19:33:36.490Z,52.70
2018-12-26T19:38:59.529Z,54.90
2018-12-26T19:41:40.117Z,55.30
2018-12-26T19:44:09.015Z,52.30
2018-12-26T19:46:37.852Z,47.77
2018-12-26T19:49:06.849Z,53.40
2018-12-26T19:51:35.775Z,47.70
2018-12-26T19:54:04.785Z,50.40
2018-12-26T19:56:33.829Z,50.67
2018-12-26T19:59:03.061Z,48.73
2018-12-26T20:01:33.194Z,53.00
2018-12-26T20:04:02.372Z,52.87
2018-12-26T20:06:32.532Z,50.50
2018-12-26T20:09:01.495Z,48.80
2018-12-26T20:15:30.933Z,53.37
2018-12-26T20:18:00.287Z,50.30
2018-12-26T20:20:29.276Z,50.13
2018-12-26T20:22:58.553Z,48.33
2018-12-26T20:25:27.629Z,49.80
2018-12-26T20:27:56.763Z,52.10
2018-12-26T20:30:25.895Z,51.70
2018-12-26T20:32:54.998Z,49.57
2018-12-26T20:35:24.150Z,54.27
2018-12-26T20:37:53.165Z,53.40
2018-12-26T20:40:26.024Z,50.30
2018-12-26T20:42:55.121Z,53.83
2018-12-26T20:45:24.200Z,49.77
2018-12-26T20:47:53.273Z,48.10
2018-12-26T20:50:22.265Z,50.03
2018-12-26T20:52:51.311Z,52.20
2018-12-26T20:55:26.600Z,54.70
2018-12-26T20:57:55.624Z,54.93
2018-12-26T21:00:24.688Z,54.63
2018-12-26T21:02:53.729Z,53.70
2018-12-26T21:05:22.838Z,56.07
2018-12-26T21:07:51.818Z,57.90
2018-12-26T21:10:20.977Z,52.77
2018-12-26T21:12:52.679Z,55.77
2018-12-26T21:15:22.885Z,52.90
2018-12-26T21:17:51.923Z,52.73
2018-12-26T21:20:21.394Z,53.70
2018-12-26T21:22:50.325Z,51.37
2018-12-26T21:25:19.289Z,52.20
2018-12-26T21:27:48.256Z,52.77
2018-12-26T21:30:17.765Z,53.60
2018-12-26T21:32:46.907Z,55.43
2018-12-26T21:35:15.884Z,53.47
2018-12-26T21:37:45.032Z,52.93
2018-12-26T21:40:14.142Z,57.73
2018-12-26T21:42:43.175Z,54.47
2018-12-26T21:45:12.722Z,54.93
2018-12-26T21:47:41.835Z,52.87
2018-12-26T21:50:12.250Z,51.70
2018-12-26T21:52:41.376Z,54.13
2018-12-26T21:55:10.411Z,52.50
2018-12-26T21:57:39.391Z,52.20
2018-12-26T22:00:09.977Z,53.57
2018-12-26T22:02:39.007Z,53.30
2018-12-26T22:05:07.970Z,51.47
2018-12-26T22:07:37.102Z,53.50
2018-12-26T22:10:06.378Z,50.23
2018-12-26T22:13:51.517Z,54.63
2018-12-26T22:16:55.834Z,50.30
2018-12-26T22:19:24.885Z,51.93
2018-12-26T22:21:53.948Z,53.07
2018-12-26T22:24:23.076Z,51.07
2018-12-26T22:26:52.186Z,51.87
2018-12-26T22:29:21.278Z,49.60
2018-12-26T22:31:50.410Z,50.90
2018-12-26T22:34:19.570Z,49.20
2018-12-26T22:36:48.638Z,47.60
2018-12-26T22:39:17.628Z,46.83
2018-12-26T22:41:47.390Z,46.77
2018-12-26T22:44:16.867Z,44.40
2018-12-26T22:46:45.958Z,43.77
2018-12-26T22:49:15.626Z,43.43
2018-12-26T22:51:44.630Z,40.10
2018-12-26T22:54:13.604Z,39.50
2018-12-26T22:56:42.594Z,41.77
2018-12-26T22:59:11.577Z,40.67
2018-12-26T23:01:44.064Z,41.00
2018-12-26T23:04:13.085Z,38.87
2018-12-26T23:06:42.185Z,37.43
2018-12-26T23:09:32.422Z,36.37
2018-12-26T23:12:01.430Z,40.50
2018-12-26T23:14:30.557Z,40.10
2018-12-26T23:16:59.649Z,38.97
2018-12-26T23:19:28.817Z,37.80
2018-12-26T23:21:58.043Z,38.40
2018-12-26T23:24:27.929Z,36.90
2018-12-26T23:26:57.089Z,37.63
2018-12-26T23:29:26.427Z,36.97
2018-12-26T23:31:55.689Z,38.30
2018-12-26T23:34:24.888Z,36.30
2018-12-26T23:36:54.075Z,37.70
2018-12-26T23:39:23.024Z,36.97
2018-12-26T23:41:53.651Z,37.57
2018-12-26T23:44:22.869Z,35.03
2018-12-26T23:46:52.049Z,35.97
2018-12-26T23:49:20.958Z,35.00
2018-12-26T23:51:50.537Z,36.10
2018-12-26T23:54:19.637Z,35.27
2018-12-26T23:56:48.681Z,35.43
2018-12-26T23:59:17.954Z,33.70
